sensor_id;sensor_type;location;lat;lon;timestamp;temperature;humidity
20487;DHT22;10402;49.012;8.370;2023-09-08T00:00:37;21.20;69.90
20487;DHT22;10402;49.012;8.370;2023-09-08T00:03:02;21.10;70.00
20487;DHT22;10402;49.012;8.370;2023-09-08T00:05:28;21.10;70.10
20487;DHT22;10402;49.012;8.370;2023-09-08T00:07:54;21.00;70.20
20487;DHT22;10402;49.012;8.370;2023-09-08T00:10:19;21.00;70.20
20487;DHT22;10402;49.012;8.370;2023-09-08T00:12:45;21.00;70.30
20487;DHT22;10402;49.012;8.370;2023-09-08T00:15:11;21.00;70.30
20487;DHT22;10402;49.012;8.370;2023-09-08T00:17:36;21.00;70.30
20487;DHT22;10402;49.012;8.370;2023-09-08T00:20:03;21.00;70.30
20487;DHT22;10402;49.012;8.370;2023-09-08T00:22:35;20.90;70.40
20487;DHT22;10402;49.012;8.370;2023-09-08T00:25:01;20.90;70.60
20487;DHT22;10402;49.012;8.370;2023-09-08T00:27:27;20.90;70.50
20487;DHT22;10402;49.012;8.370;2023-09-08T00:29:53;20.90;70.40
20487;DHT22;10402;49.012;8.370;2023-09-08T00:32:18;20.90;70.40
20487;DHT22;10402;49.012;8.370;2023-09-08T00:34:44;20.90;70.40
20487;DHT22;10402;49.012;8.370;2023-09-08T00:37:09;20.90;70.40
20487;DHT22;10402;49.012;8.370;2023-09-08T00:39:37;20.90;70.50
20487;DHT22;10402;49.012;8.370;2023-09-08T00:42:02;20.90;70.60
20487;DHT22;10402;49.012;8.370;2023-09-08T00:44:28;20.90;70.60
20487;DHT22;10402;49.012;8.370;2023-09-08T00:46:53;20.80;70.60
20487;DHT22;10402;49.012;8.370;2023-09-08T00:49:20;20.80;70.70
20487;DHT22;10402;49.012;8.370;2023-09-08T00:51:46;20.80;70.90
20487;DHT22;10402;49.012;8.370;2023-09-08T00:54:11;20.70;70.80
20487;DHT22;10402;49.012;8.370;2023-09-08T00:56:37;20.70;70.90
20487;DHT22;10402;49.012;8.370;2023-09-08T00:59:04;20.70;71.00
20487;DHT22;10402;49.012;8.370;2023-09-08T01:01:31;20.60;71.00
20487;DHT22;10402;49.012;8.370;2023-09-08T01:03:56;20.60;71.20
20487;DHT22;10402;49.012;8.370;2023-09-08T01:06:22;20.60;71.20
20487;DHT22;10402;49.012;8.370;2023-09-08T01:08:48;20.60;71.40
20487;DHT22;10402;49.012;8.370;2023-09-08T01:11:15;20.50;71.40
20487;DHT22;10402;49.012;8.370;2023-09-08T01:13:43;20.50;71.60
20487;DHT22;10402;49.012;8.370;2023-09-08T01:16:08;20.50;71.70
20487;DHT22;10402;49.012;8.370;2023-09-08T01:18:34;20.50;71.70
20487;DHT22;10402;49.012;8.370;2023-09-08T01:24:05;20.40;71.70
20487;DHT22;10402;49.012;8.370;2023-09-08T01:26:40;20.40;72.00
20487;DHT22;10402;49.012;8.370;2023-09-08T01:29:16;20.40;72.00
20487;DHT22;10402;49.012;8.370;2023-09-08T01:31:42;20.30;71.90
20487;DHT22;10402;49.012;8.370;2023-09-08T01:34:08;20.30;72.10
20487;DHT22;10402;49.012;8.370;2023-09-08T01:36:34;20.30;72.20
20487;DHT22;10402;49.012;8.370;2023-09-08T01:39:01;20.30;72.30
20487;DHT22;10402;49.012;8.370;2023-09-08T01:41:27;20.30;72.40
20487;DHT22;10402;49.012;8.370;2023-09-08T01:43:53;20.30;72.50
20487;DHT22;10402;49.012;8.370;2023-09-08T01:46:20;20.30;72.50
20487;DHT22;10402;49.012;8.370;2023-09-08T01:48:45;20.20;72.50
20487;DHT22;10402;49.012;8.370;2023-09-08T01:51:11;20.30;72.70
20487;DHT22;10402;49.012;8.370;2023-09-08T01:53:36;20.20;72.80
20487;DHT22;10402;49.012;8.370;2023-09-08T01:56:02;20.10;72.70
20487;DHT22;10402;49.012;8.370;2023-09-08T01:58:27;20.10;72.80
20487;DHT22;10402;49.012;8.370;2023-09-08T02:00:54;20.10;72.80
20487;DHT22;10402;49.012;8.370;2023-09-08T02:03:19;20.10;72.80
20487;DHT22;10402;49.012;8.370;2023-09-08T02:05:45;20.00;72.70
20487;DHT22;10402;49.012;8.370;2023-09-08T02:08:11;20.00;72.90
20487;DHT22;10402;49.012;8.370;2023-09-08T02:10:39;20.00;73.20
20487;DHT22;10402;49.012;8.370;2023-09-08T02:13:05;19.90;73.20
20487;DHT22;10402;49.012;8.370;2023-09-08T02:15:31;19.90;73.30
20487;DHT22;10402;49.012;8.370;2023-09-08T02:17:59;19.90;73.60
20487;DHT22;10402;49.012;8.370;2023-09-08T02:20:25;19.80;73.60
20487;DHT22;10402;49.012;8.370;2023-09-08T02:22:54;19.80;73.70
20487;DHT22;10402;49.012;8.370;2023-09-08T02:25:20;19.80;73.70
20487;DHT22;10402;49.012;8.370;2023-09-08T02:27:46;19.80;73.80
20487;DHT22;10402;49.012;8.370;2023-09-08T02:30:11;19.70;73.70
20487;DHT22;10402;49.012;8.370;2023-09-08T02:32:37;19.70;73.70
20487;DHT22;10402;49.012;8.370;2023-09-08T02:35:03;19.70;73.80
20487;DHT22;10402;49.012;8.370;2023-09-08T02:37:28;19.70;73.90
20487;DHT22;10402;49.012;8.370;2023-09-08T02:39:54;19.60;74.10
20487;DHT22;10402;49.012;8.370;2023-09-08T02:42:19;19.60;74.10
20487;DHT22;10402;49.012;8.370;2023-09-08T02:44:45;19.60;74.30
20487;DHT22;10402;49.012;8.370;2023-09-08T02:47:10;19.50;74.40
20487;DHT22;10402;49.012;8.370;2023-09-08T02:49:36;19.50;74.50
20487;DHT22;10402;49.012;8.370;2023-09-08T02:52:01;19.40;74.50
20487;DHT22;10402;49.012;8.370;2023-09-08T02:54:27;19.40;74.70
20487;DHT22;10402;49.012;8.370;2023-09-08T02:56:53;19.40;75.00
20487;DHT22;10402;49.012;8.370;2023-09-08T02:59:18;19.30;74.80
20487;DHT22;10402;49.012;8.370;2023-09-08T03:01:44;19.30;75.00
20487;DHT22;10402;49.012;8.370;2023-09-08T03:04:09;19.30;75.10
20487;DHT22;10402;49.012;8.370;2023-09-08T03:06:35;19.20;75.00
20487;DHT22;10402;49.012;8.370;2023-09-08T03:09:00;19.20;75.00
20487;DHT22;10402;49.012;8.370;2023-09-08T03:11:26;19.20;75.10
20487;DHT22;10402;49.012;8.370;2023-09-08T03:13:51;19.20;75.10
20487;DHT22;10402;49.012;8.370;2023-09-08T03:16:17;19.20;75.20
20487;DHT22;10402;49.012;8.370;2023-09-08T03:18:42;19.20;75.30
20487;DHT22;10402;49.012;8.370;2023-09-08T03:21:08;19.20;75.30
20487;DHT22;10402;49.012;8.370;2023-09-08T03:23:41;19.10;75.40
20487;DHT22;10402;49.012;8.370;2023-09-08T03:26:07;19.00;75.40
20487;DHT22;10402;49.012;8.370;2023-09-08T03:28:34;19.00;75.60
20487;DHT22;10402;49.012;8.370;2023-09-08T03:31:03;19.00;75.80
20487;DHT22;10402;49.012;8.370;2023-09-08T03:33:29;19.00;75.80
20487;DHT22;10402;49.012;8.370;2023-09-08T03:35:54;19.00;75.80
20487;DHT22;10402;49.012;8.370;2023-09-08T03:38:21;19.00;75.90
20487;DHT22;10402;49.012;8.370;2023-09-08T03:40:46;19.00;76.00
20487;DHT22;10402;49.012;8.370;2023-09-08T03:43:12;19.00;76.10
20487;DHT22;10402;49.012;8.370;2023-09-08T03:45:38;19.00;76.10
20487;DHT22;10402;49.012;8.370;2023-09-08T03:48:03;19.00;76.20
20487;DHT22;10402;49.012;8.370;2023-09-08T03:50:29;18.90;76.30
20487;DHT22;10402;49.012;8.370;2023-09-08T03:52:55;18.90;76.50
20487;DHT22;10402;49.012;8.370;2023-09-08T03:55:21;18.90;76.50
20487;DHT22;10402;49.012;8.370;2023-09-08T03:57:46;18.90;76.50
20487;DHT22;10402;49.012;8.370;2023-09-08T04:00:13;18.90;76.60
20487;DHT22;10402;49.012;8.370;2023-09-08T04:02:44;18.80;76.80
20487;DHT22;10402;49.012;8.370;2023-09-08T04:05:10;18.80;76.90
20487;DHT22;10402;49.012;8.370;2023-09-08T04:07:36;18.80;77.10
20487;DHT22;10402;49.012;8.370;2023-09-08T04:10:02;18.80;77.00
20487;DHT22;10402;49.012;8.370;2023-09-08T04:12:28;18.80;77.20
20487;DHT22;10402;49.012;8.370;2023-09-08T04:14:53;18.80;77.20
20487;DHT22;10402;49.012;8.370;2023-09-08T04:17:19;18.70;77.10
20487;DHT22;10402;49.012;8.370;2023-09-08T04:19:45;18.80;77.20
20487;DHT22;10402;49.012;8.370;2023-09-08T04:22:10;18.70;77.10
20487;DHT22;10402;49.012;8.370;2023-09-08T04:24:36;18.70;77.10
20487;DHT22;10402;49.012;8.370;2023-09-08T04:27:04;18.70;77.20
20487;DHT22;10402;49.012;8.370;2023-09-08T04:29:29;18.70;77.20
20487;DHT22;10402;49.012;8.370;2023-09-08T04:31:55;18.60;77.10
20487;DHT22;10402;49.012;8.370;2023-09-08T04:34:20;18.70;77.40
20487;DHT22;10402;49.012;8.370;2023-09-08T04:36:46;18.70;78.20
20487;DHT22;10402;49.012;8.370;2023-09-08T04:39:12;18.70;77.50
20487;DHT22;10402;49.012;8.370;2023-09-08T04:41:37;18.60;77.50
20487;DHT22;10402;49.012;8.370;2023-09-08T04:44:04;18.60;77.60
20487;DHT22;10402;49.012;8.370;2023-09-08T04:46:30;18.50;77.60
20487;DHT22;10402;49.012;8.370;2023-09-08T04:48:56;18.50;77.80
20487;DHT22;10402;49.012;8.370;2023-09-08T04:51:21;18.50;77.80
20487;DHT22;10402;49.012;8.370;2023-09-08T04:53:47;18.50;77.90
20487;DHT22;10402;49.012;8.370;2023-09-08T04:56:13;18.40;77.80
20487;DHT22;10402;49.012;8.370;2023-09-08T04:58:39;18.40;77.80
20487;DHT22;10402;49.012;8.370;2023-09-08T05:01:05;18.40;78.60
20487;DHT22;10402;49.012;8.370;2023-09-08T05:03:31;18.30;77.70
20487;DHT22;10402;49.012;8.370;2023-09-08T05:05:56;18.30;77.80
20487;DHT22;10402;49.012;8.370;2023-09-08T05:08:22;18.30;77.80
20487;DHT22;10402;49.012;8.370;2023-09-08T05:10:48;18.30;77.90
20487;DHT22;10402;49.012;8.370;2023-09-08T05:13:13;18.30;78.10
20487;DHT22;10402;49.012;8.370;2023-09-08T05:15:39;18.30;78.20
20487;DHT22;10402;49.012;8.370;2023-09-08T05:18:07;18.30;78.20
20487;DHT22;10402;49.012;8.370;2023-09-08T05:20:33;18.20;78.30
20487;DHT22;10402;49.012;8.370;2023-09-08T05:22:58;18.30;78.50
20487;DHT22;10402;49.012;8.370;2023-09-08T05:25:24;18.30;78.50
20487;DHT22;10402;49.012;8.370;2023-09-08T05:27:49;18.30;78.30
20487;DHT22;10402;49.012;8.370;2023-09-08T05:30:15;18.30;78.30
20487;DHT22;10402;49.012;8.370;2023-09-08T05:32:41;18.30;78.20
20487;DHT22;10402;49.012;8.370;2023-09-08T05:35:06;18.30;78.20
20487;DHT22;10402;49.012;8.370;2023-09-08T05:37:32;18.30;78.20
20487;DHT22;10402;49.012;8.370;2023-09-08T05:39:57;18.30;78.40
20487;DHT22;10402;49.012;8.370;2023-09-08T05:42:23;18.30;78.60
20487;DHT22;10402;49.012;8.370;2023-09-08T05:44:48;18.30;78.60
20487;DHT22;10402;49.012;8.370;2023-09-08T05:47:14;18.30;78.60
20487;DHT22;10402;49.012;8.370;2023-09-08T05:49:39;18.30;78.60
20487;DHT22;10402;49.012;8.370;2023-09-08T05:52:05;18.30;78.60
20487;DHT22;10402;49.012;8.370;2023-09-08T05:54:31;18.40;78.80
20487;DHT22;10402;49.012;8.370;2023-09-08T05:56:56;18.40;78.80
20487;DHT22;10402;49.012;8.370;2023-09-08T05:59:22;18.40;78.70
20487;DHT22;10402;49.012;8.370;2023-09-08T06:01:47;18.40;78.70
20487;DHT22;10402;49.012;8.370;2023-09-08T06:04:13;18.50;78.80
20487;DHT22;10402;49.012;8.370;2023-09-08T06:06:38;18.50;78.80
20487;DHT22;10402;49.012;8.370;2023-09-08T06:09:05;18.60;78.80
20487;DHT22;10402;49.012;8.370;2023-09-08T06:11:31;18.60;78.70
20487;DHT22;10402;49.012;8.370;2023-09-08T06:13:57;18.60;78.80
20487;DHT22;10402;49.012;8.370;2023-09-08T06:16:25;18.80;78.80
20487;DHT22;10402;49.012;8.370;2023-09-08T06:18:50;18.80;78.60
20487;DHT22;10402;49.012;8.370;2023-09-08T06:21:16;18.90;78.40
20487;DHT22;10402;49.012;8.370;2023-09-08T06:23:41;18.90;78.20
20487;DHT22;10402;49.012;8.370;2023-09-08T06:26:07;18.90;78.00
20487;DHT22;10402;49.012;8.370;2023-09-08T06:28:32;19.00;78.20
20487;DHT22;10402;49.012;8.370;2023-09-08T06:30:58;19.00;78.10
20487;DHT22;10402;49.012;8.370;2023-09-08T06:33:24;19.10;78.20
20487;DHT22;10402;49.012;8.370;2023-09-08T06:35:50;19.10;78.10
20487;DHT22;10402;49.012;8.370;2023-09-08T06:38:15;19.10;78.20
20487;DHT22;10402;49.012;8.370;2023-09-08T06:40:41;19.20;78.20
20487;DHT22;10402;49.012;8.370;2023-09-08T06:43:06;19.20;78.10
20487;DHT22;10402;49.012;8.370;2023-09-08T06:45:32;19.30;78.00
20487;DHT22;10402;49.012;8.370;2023-09-08T06:47:58;19.30;78.00
20487;DHT22;10402;49.012;8.370;2023-09-08T06:50:25;19.40;78.00
20487;DHT22;10402;49.012;8.370;2023-09-08T06:52:51;19.40;78.00
20487;DHT22;10402;49.012;8.370;2023-09-08T06:55:17;19.40;78.10
20487;DHT22;10402;49.012;8.370;2023-09-08T06:57:43;19.40;78.20
20487;DHT22;10402;49.012;8.370;2023-09-08T07:00:09;19.40;78.30
20487;DHT22;10402;49.012;8.370;2023-09-08T07:02:37;19.40;78.40
20487;DHT22;10402;49.012;8.370;2023-09-08T07:05:03;19.50;78.50
20487;DHT22;10402;49.012;8.370;2023-09-08T07:07:36;19.50;78.40
20487;DHT22;10402;49.012;8.370;2023-09-08T07:10:05;19.60;78.50
20487;DHT22;10402;49.012;8.370;2023-09-08T07:12:31;19.60;78.40
20487;DHT22;10402;49.012;8.370;2023-09-08T07:14:57;19.70;78.40
20487;DHT22;10402;49.012;8.370;2023-09-08T07:17:22;19.80;78.30
20487;DHT22;10402;49.012;8.370;2023-09-08T07:19:49;19.80;78.30
20487;DHT22;10402;49.012;8.370;2023-09-08T07:22:14;19.90;78.30
20487;DHT22;10402;49.012;8.370;2023-09-08T07:24:40;19.90;78.30
20487;DHT22;10402;49.012;8.370;2023-09-08T07:27:06;20.00;78.40
20487;DHT22;10402;49.012;8.370;2023-09-08T07:29:32;20.10;78.40
20487;DHT22;10402;49.012;8.370;2023-09-08T07:31:57;20.10;78.20
20487;DHT22;10402;49.012;8.370;2023-09-08T07:34:23;20.20;78.50
20487;DHT22;10402;49.012;8.370;2023-09-08T07:36:49;20.20;78.40
20487;DHT22;10402;49.012;8.370;2023-09-08T07:39:14;20.20;78.40
20487;DHT22;10402;49.012;8.370;2023-09-08T07:41:40;20.30;78.30
20487;DHT22;10402;49.012;8.370;2023-09-08T07:44:06;20.30;78.20
20487;DHT22;10402;49.012;8.370;2023-09-08T07:46:32;20.40;78.10
20487;DHT22;10402;49.012;8.370;2023-09-08T07:48:59;20.50;78.10
20487;DHT22;10402;49.012;8.370;2023-09-08T07:51:25;20.60;78.10
20487;DHT22;10402;49.012;8.370;2023-09-08T07:53:51;20.60;78.00
20487;DHT22;10402;49.012;8.370;2023-09-08T07:56:16;20.70;78.10
20487;DHT22;10402;49.012;8.370;2023-09-08T07:58:42;20.80;78.10
20487;DHT22;10402;49.012;8.370;2023-09-08T08:01:08;20.80;78.20
20487;DHT22;10402;49.012;8.370;2023-09-08T08:03:33;20.80;78.00
20487;DHT22;10402;49.012;8.370;2023-09-08T08:06:00;20.90;77.90
20487;DHT22;10402;49.012;8.370;2023-09-08T08:08:26;20.90;77.80
20487;DHT22;10402;49.012;8.370;2023-09-08T08:10:52;20.90;77.80
20487;DHT22;10402;49.012;8.370;2023-09-08T08:13:17;21.00;77.80
20487;DHT22;10402;49.012;8.370;2023-09-08T08:15:43;21.00;77.70
20487;DHT22;10402;49.012;8.370;2023-09-08T08:18:10;21.10;77.70
20487;DHT22;10402;49.012;8.370;2023-09-08T08:20:36;21.10;77.50
20487;DHT22;10402;49.012;8.370;2023-09-08T08:23:03;21.20;77.40
20487;DHT22;10402;49.012;8.370;2023-09-08T08:25:29;21.20;77.30
20487;DHT22;10402;49.012;8.370;2023-09-08T08:27:55;21.30;77.30
20487;DHT22;10402;49.012;8.370;2023-09-08T08:30:22;21.40;77.30
20487;DHT22;10402;49.012;8.370;2023-09-08T08:32:47;21.40;77.30
20487;DHT22;10402;49.012;8.370;2023-09-08T08:35:13;21.50;77.40
20487;DHT22;10402;49.012;8.370;2023-09-08T08:37:40;21.50;77.30
20487;DHT22;10402;49.012;8.370;2023-09-08T08:40:07;21.60;77.40
20487;DHT22;10402;49.012;8.370;2023-09-08T08:42:34;21.80;77.90
20487;DHT22;10402;49.012;8.370;2023-09-08T08:45:00;21.80;77.90
20487;DHT22;10402;49.012;8.370;2023-09-08T08:47:27;21.80;77.70
20487;DHT22;10402;49.012;8.370;2023-09-08T08:49:56;21.90;77.60
20487;DHT22;10402;49.012;8.370;2023-09-08T08:52:22;22.00;77.70
20487;DHT22;10402;49.012;8.370;2023-09-08T08:54:47;22.00;77.70
20487;DHT22;10402;49.012;8.370;2023-09-08T08:57:14;22.10;77.80
20487;DHT22;10402;49.012;8.370;2023-09-08T08:59:40;22.10;77.80
20487;DHT22;10402;49.012;8.370;2023-09-08T09:02:07;22.10;77.70
20487;DHT22;10402;49.012;8.370;2023-09-08T09:04:36;22.20;77.60
20487;DHT22;10402;49.012;8.370;2023-09-08T09:07:02;22.20;77.50
20487;DHT22;10402;49.012;8.370;2023-09-08T09:09:29;22.30;77.50
20487;DHT22;10402;49.012;8.370;2023-09-08T09:11:55;22.30;77.50
20487;DHT22;10402;49.012;8.370;2023-09-08T09:14:21;22.40;77.40
20487;DHT22;10402;49.012;8.370;2023-09-08T09:16:48;22.40;77.30
20487;DHT22;10402;49.012;8.370;2023-09-08T09:19:22;22.50;77.30
20487;DHT22;10402;49.012;8.370;2023-09-08T09:21:53;22.50;77.20
20487;DHT22;10402;49.012;8.370;2023-09-08T09:24:49;22.60;77.30
20487;DHT22;10402;49.012;8.370;2023-09-08T09:27:14;22.70;77.20
20487;DHT22;10402;49.012;8.370;2023-09-08T09:29:45;22.80;77.10
20487;DHT22;10402;49.012;8.370;2023-09-08T09:32:12;22.90;77.10
20487;DHT22;10402;49.012;8.370;2023-09-08T09:34:50;22.90;77.00
20487;DHT22;10402;49.012;8.370;2023-09-08T09:37:18;23.00;77.00
20487;DHT22;10402;49.012;8.370;2023-09-08T09:39:52;23.10;77.10
20487;DHT22;10402;49.012;8.370;2023-09-08T09:42:18;23.10;76.90
20487;DHT22;10402;49.012;8.370;2023-09-08T09:44:44;23.20;76.90
20487;DHT22;10402;49.012;8.370;2023-09-08T09:47:09;23.30;76.90
20487;DHT22;10402;49.012;8.370;2023-09-08T09:49:43;23.30;76.80
20487;DHT22;10402;49.012;8.370;2023-09-08T09:52:08;23.40;76.70
20487;DHT22;10402;49.012;8.370;2023-09-08T09:54:36;23.50;76.40
20487;DHT22;10402;49.012;8.370;2023-09-08T09:57:01;23.60;76.40
20487;DHT22;10402;49.012;8.370;2023-09-08T09:59:28;23.60;76.40
20487;DHT22;10402;49.012;8.370;2023-09-08T10:01:54;23.60;76.10
20487;DHT22;10402;49.012;8.370;2023-09-08T10:04:20;23.60;76.10
20487;DHT22;10402;49.012;8.370;2023-09-08T10:06:46;23.70;76.00
20487;DHT22;10402;49.012;8.370;2023-09-08T10:09:12;23.80;75.90
20487;DHT22;10402;49.012;8.370;2023-09-08T10:11:47;23.80;75.80
20487;DHT22;10402;49.012;8.370;2023-09-08T10:14:16;23.90;75.70
20487;DHT22;10402;49.012;8.370;2023-09-08T10:16:44;23.90;75.40
20487;DHT22;10402;49.012;8.370;2023-09-08T10:19:11;24.00;75.30
20487;DHT22;10402;49.012;8.370;2023-09-08T10:21:41;24.10;75.20
20487;DHT22;10402;49.012;8.370;2023-09-08T10:24:24;24.10;75.90
20487;DHT22;10402;49.012;8.370;2023-09-08T10:27:11;24.20;75.00
20487;DHT22;10402;49.012;8.370;2023-09-08T10:29:38;24.20;74.70
20487;DHT22;10402;49.012;8.370;2023-09-08T10:32:06;24.20;74.40
20487;DHT22;10402;49.012;8.370;2023-09-08T10:34:33;24.30;74.40
20487;DHT22;10402;49.012;8.370;2023-09-08T10:36:59;24.40;74.40
20487;DHT22;10402;49.012;8.370;2023-09-08T10:39:30;24.40;74.30
20487;DHT22;10402;49.012;8.370;2023-09-08T10:47:13;24.50;74.00
20487;DHT22;10402;49.012;8.370;2023-09-08T10:49:39;24.50;73.90
20487;DHT22;10402;49.012;8.370;2023-09-08T10:52:08;24.60;73.80
20487;DHT22;10402;49.012;8.370;2023-09-08T10:54:53;24.70;73.60
20487;DHT22;10402;49.012;8.370;2023-09-08T10:57:21;24.70;73.40
20487;DHT22;10402;49.012;8.370;2023-09-08T10:59:55;24.80;73.30
20487;DHT22;10402;49.012;8.370;2023-09-08T11:05:00;24.90;73.00
20487;DHT22;10402;49.012;8.370;2023-09-08T11:07:26;24.90;72.90
20487;DHT22;10402;49.012;8.370;2023-09-08T11:09:52;24.90;73.50
20487;DHT22;10402;49.012;8.370;2023-09-08T11:12:17;25.00;72.40
20487;DHT22;10402;49.012;8.370;2023-09-08T11:14:43;25.00;72.30
20487;DHT22;10402;49.012;8.370;2023-09-08T11:17:09;25.10;72.10
20487;DHT22;10402;49.012;8.370;2023-09-08T11:19:49;25.10;72.00
20487;DHT22;10402;49.012;8.370;2023-09-08T11:22:15;25.10;72.00
20487;DHT22;10402;49.012;8.370;2023-09-08T11:24:42;25.10;72.00
20487;DHT22;10402;49.012;8.370;2023-09-08T11:27:08;25.20;71.90
20487;DHT22;10402;49.012;8.370;2023-09-08T11:29:34;25.20;71.80
20487;DHT22;10402;49.012;8.370;2023-09-08T11:31:59;25.20;71.50
20487;DHT22;10402;49.012;8.370;2023-09-08T11:34:25;25.20;71.50
20487;DHT22;10402;49.012;8.370;2023-09-08T11:36:51;25.20;71.40
20487;DHT22;10402;49.012;8.370;2023-09-08T11:39:18;25.30;71.40
20487;DHT22;10402;49.012;8.370;2023-09-08T11:41:43;25.30;71.20
20487;DHT22;10402;49.012;8.370;2023-09-08T11:44:09;25.40;71.10
20487;DHT22;10402;49.012;8.370;2023-09-08T11:46:35;25.50;71.00
20487;DHT22;10402;49.012;8.370;2023-09-08T11:49:00;25.50;70.80
20487;DHT22;10402;49.012;8.370;2023-09-08T11:51:26;25.50;70.60
20487;DHT22;10402;49.012;8.370;2023-09-08T11:53:52;25.60;70.50
20487;DHT22;10402;49.012;8.370;2023-09-08T11:56:18;25.60;70.40
20487;DHT22;10402;49.012;8.370;2023-09-08T11:58:44;25.60;70.40
20487;DHT22;10402;49.012;8.370;2023-09-08T12:01:10;25.60;70.30
20487;DHT22;10402;49.012;8.370;2023-09-08T12:03:51;25.70;70.00
20487;DHT22;10402;49.012;8.370;2023-09-08T12:06:17;25.70;69.90
20487;DHT22;10402;49.012;8.370;2023-09-08T12:08:43;25.80;69.70
20487;DHT22;10402;49.012;8.370;2023-09-08T12:11:09;25.80;69.50
20487;DHT22;10402;49.012;8.370;2023-09-08T12:13:35;25.80;69.30
20487;DHT22;10402;49.012;8.370;2023-09-08T12:16:00;25.90;69.30
20487;DHT22;10402;49.012;8.370;2023-09-08T12:18:39;26.00;69.20
20487;DHT22;10402;49.012;8.370;2023-09-08T12:21:05;26.00;69.10
20487;DHT22;10402;49.012;8.370;2023-09-08T12:23:31;26.10;69.00
20487;DHT22;10402;49.012;8.370;2023-09-08T12:25:57;26.10;68.90
20487;DHT22;10402;49.012;8.370;2023-09-08T12:28:23;26.20;68.80
20487;DHT22;10402;49.012;8.370;2023-09-08T12:30:49;26.20;68.70
20487;DHT22;10402;49.012;8.370;2023-09-08T12:33:15;26.30;68.60
20487;DHT22;10402;49.012;8.370;2023-09-08T12:35:45;26.30;68.30
20487;DHT22;10402;49.012;8.370;2023-09-08T12:38:13;26.30;68.00
20487;DHT22;10402;49.012;8.370;2023-09-08T12:40:39;26.40;68.00
20487;DHT22;10402;49.012;8.370;2023-09-08T12:43:05;26.40;67.60
20487;DHT22;10402;49.012;8.370;2023-09-08T12:45:31;26.50;67.40
20487;DHT22;10402;49.012;8.370;2023-09-08T12:48:01;26.50;67.20
20487;DHT22;10402;49.012;8.370;2023-09-08T12:50:28;26.50;67.90
20487;DHT22;10402;49.012;8.370;2023-09-08T12:52:54;26.60;67.00
20487;DHT22;10402;49.012;8.370;2023-09-08T12:55:20;26.60;67.00
20487;DHT22;10402;49.012;8.370;2023-09-08T12:57:46;26.70;67.00
20487;DHT22;10402;49.012;8.370;2023-09-08T13:00:12;26.70;66.70
20487;DHT22;10402;49.012;8.370;2023-09-08T13:02:40;26.70;66.50
20487;DHT22;10402;49.012;8.370;2023-09-08T13:05:07;26.70;66.30
20487;DHT22;10402;49.012;8.370;2023-09-08T13:07:33;26.80;66.10
20487;DHT22;10402;49.012;8.370;2023-09-08T13:09:58;26.90;66.00
20487;DHT22;10402;49.012;8.370;2023-09-08T13:12:24;26.80;65.80
20487;DHT22;10402;49.012;8.370;2023-09-08T13:14:50;26.80;65.80
20487;DHT22;10402;49.012;8.370;2023-09-08T13:17:15;26.90;65.90
20487;DHT22;10402;49.012;8.370;2023-09-08T13:19:42;26.90;65.50
20487;DHT22;10402;49.012;8.370;2023-09-08T13:22:08;27.00;65.30
20487;DHT22;10402;49.012;8.370;2023-09-08T13:24:35;27.00;65.20
20487;DHT22;10402;49.012;8.370;2023-09-08T13:27:01;27.00;65.00
20487;DHT22;10402;49.012;8.370;2023-09-08T13:29:27;27.00;64.90
20487;DHT22;10402;49.012;8.370;2023-09-08T13:31:53;27.10;64.90
20487;DHT22;10402;49.012;8.370;2023-09-08T13:34:19;27.10;64.70
20487;DHT22;10402;49.012;8.370;2023-09-08T13:36:45;27.20;64.50
20487;DHT22;10402;49.012;8.370;2023-09-08T13:39:10;27.30;64.20
20487;DHT22;10402;49.012;8.370;2023-09-08T13:41:51;27.30;63.60
20487;DHT22;10402;49.012;8.370;2023-09-08T13:44:18;27.40;63.50
20487;DHT22;10402;49.012;8.370;2023-09-08T13:46:45;27.40;63.20
20487;DHT22;10402;49.012;8.370;2023-09-08T13:49:11;27.50;63.10
20487;DHT22;10402;49.012;8.370;2023-09-08T13:51:37;27.50;63.00
20487;DHT22;10402;49.012;8.370;2023-09-08T13:54:02;27.50;63.00
20487;DHT22;10402;49.012;8.370;2023-09-08T13:56:28;27.50;63.00
20487;DHT22;10402;49.012;8.370;2023-09-08T13:58:53;27.60;62.90
20487;DHT22;10402;49.012;8.370;2023-09-08T14:01:19;27.60;62.50
20487;DHT22;10402;49.012;8.370;2023-09-08T14:03:45;27.60;62.40
20487;DHT22;10402;49.012;8.370;2023-09-08T14:06:10;27.70;61.80
20487;DHT22;10402;49.012;8.370;2023-09-08T14:08:36;27.70;61.70
20487;DHT22;10402;49.012;8.370;2023-09-08T14:11:01;27.70;61.30
20487;DHT22;10402;49.012;8.370;2023-09-08T14:13:27;27.80;61.40
20487;DHT22;10402;49.012;8.370;2023-09-08T14:15:52;27.80;61.40
20487;DHT22;10402;49.012;8.370;2023-09-08T14:18:18;27.80;61.10
20487;DHT22;10402;49.012;8.370;2023-09-08T14:20:44;27.80;60.80
20487;DHT22;10402;49.012;8.370;2023-09-08T14:23:09;27.90;60.90
20487;DHT22;10402;49.012;8.370;2023-09-08T14:25:35;27.90;60.70
20487;DHT22;10402;49.012;8.370;2023-09-08T14:28:01;27.90;60.00
20487;DHT22;10402;49.012;8.370;2023-09-08T14:30:30;27.90;60.00
20487;DHT22;10402;49.012;8.370;2023-09-08T14:32:55;27.90;60.00
20487;DHT22;10402;49.012;8.370;2023-09-08T14:35:21;28.00;59.80
20487;DHT22;10402;49.012;8.370;2023-09-08T14:37:47;28.00;59.70
20487;DHT22;10402;49.012;8.370;2023-09-08T14:40:16;28.00;59.70
20487;DHT22;10402;49.012;8.370;2023-09-08T14:42:41;28.00;59.60
20487;DHT22;10402;49.012;8.370;2023-09-08T14:45:07;28.10;59.60
20487;DHT22;10402;49.012;8.370;2023-09-08T14:47:34;28.00;59.50
20487;DHT22;10402;49.012;8.370;2023-09-08T14:49:59;28.10;59.40
20487;DHT22;10402;49.012;8.370;2023-09-08T14:52:25;28.10;59.40
20487;DHT22;10402;49.012;8.370;2023-09-08T14:54:51;28.10;59.30
20487;DHT22;10402;49.012;8.370;2023-09-08T14:57:16;28.10;59.40
20487;DHT22;10402;49.012;8.370;2023-09-08T14:59:42;28.10;59.60
20487;DHT22;10402;49.012;8.370;2023-09-08T15:02:08;28.10;59.30
20487;DHT22;10402;49.012;8.370;2023-09-08T15:04:34;28.10;59.40
20487;DHT22;10402;49.012;8.370;2023-09-08T15:06:59;28.10;59.30
20487;DHT22;10402;49.012;8.370;2023-09-08T15:09:25;28.10;59.20
20487;DHT22;10402;49.012;8.370;2023-09-08T15:11:50;28.20;59.20
20487;DHT22;10402;49.012;8.370;2023-09-08T15:14:16;28.20;59.10
20487;DHT22;10402;49.012;8.370;2023-09-08T15:16:42;28.30;58.80
20487;DHT22;10402;49.012;8.370;2023-09-08T15:19:08;28.30;58.60
20487;DHT22;10402;49.012;8.370;2023-09-08T15:21:33;28.40;58.50
20487;DHT22;10402;49.012;8.370;2023-09-08T15:23:59;28.40;58.60
20487;DHT22;10402;49.012;8.370;2023-09-08T15:26:27;28.30;58.50
20487;DHT22;10402;49.012;8.370;2023-09-08T15:28:52;28.40;58.40
20487;DHT22;10402;49.012;8.370;2023-09-08T15:31:18;28.40;58.40
20487;DHT22;10402;49.012;8.370;2023-09-08T15:33:44;28.40;58.50
20487;DHT22;10402;49.012;8.370;2023-09-08T15:36:10;28.40;58.40